createdAt,value
2019-03-04T00:01:07.033Z,97.30
2019-03-04T00:03:37.530Z,97.20
2019-03-04T00:06:07.886Z,97.30
2019-03-04T00:08:38.261Z,97.20
2019-03-04T00:11:08.605Z,97.00
2019-03-04T00:13:38.989Z,97.10
2019-03-04T00:16:09.433Z,97.10
2019-03-04T00:18:39.925Z,96.90
2019-03-04T00:21:10.781Z,97.30
2019-03-04T00:23:41.163Z,96.80
2019-03-04T00:26:11.518Z,97.00
2019-03-04T00:28:41.917Z,96.80
2019-03-04T00:31:12.265Z,96.70
2019-03-04T00:33:42.649Z,96.90
2019-03-04T00:36:13.057Z,96.80
2019-03-04T00:38:43.450Z,96.90
2019-03-04T00:41:14.130Z,96.80
2019-03-04T00:43:44.574Z,96.80
2019-03-04T00:46:15.050Z,96.90
2019-03-04T00:48:45.499Z,96.70
2019-03-04T00:51:15.913Z,96.70
2019-03-04T00:53:46.325Z,96.80
2019-03-04T00:56:16.696Z,96.70
2019-03-04T00:58:47.086Z,96.50
2019-03-04T01:01:17.442Z,96.50
2019-03-04T01:03:47.854Z,96.70
2019-03-04T01:06:18.214Z,96.60
2019-03-04T01:08:48.605Z,96.70
2019-03-04T01:11:18.966Z,96.50
2019-03-04T01:13:49.369Z,96.50
2019-03-04T01:16:19.714Z,96.40
2019-03-04T01:18:50.102Z,96.50
2019-03-04T01:21:20.441Z,96.50
2019-03-04T01:23:51.569Z,96.60
2019-03-04T01:26:22.004Z,96.40
2019-03-04T01:28:52.401Z,96.40
2019-03-04T01:31:22.762Z,96.30
2019-03-04T01:33:53.229Z,96.30
2019-03-04T01:36:23.670Z,96.20
2019-03-04T01:38:54.070Z,96.20
2019-03-04T01:41:24.421Z,96.20
2019-03-04T01:43:54.819Z,96.00
2019-03-04T01:46:25.193Z,95.80
2019-03-04T01:48:55.549Z,96.00
2019-03-04T01:51:25.937Z,95.90
2019-03-04T01:53:56.309Z,95.80
2019-03-04T01:56:26.877Z,95.90
2019-03-04T01:58:57.246Z,96.10
2019-03-04T02:01:27.705Z,96.00
2019-03-04T02:03:58.313Z,95.70
2019-03-04T02:06:28.793Z,96.00
2019-03-04T02:08:59.175Z,95.90
2019-03-04T02:11:29.569Z,96.00
2019-03-04T02:13:59.909Z,95.90
2019-03-04T02:16:30.529Z,95.90
2019-03-04T02:19:00.882Z,96.00
2019-03-04T02:21:31.378Z,96.00
2019-03-04T02:24:19.498Z,96.00
2019-03-04T02:26:49.986Z,96.00
2019-03-04T02:29:20.351Z,96.20
2019-03-04T02:31:50.739Z,96.20
2019-03-04T02:34:21.139Z,96.10
2019-03-04T02:36:51.667Z,96.20
2019-03-04T02:39:22.025Z,96.20
2019-03-04T02:41:52.374Z,96.20
2019-03-04T02:44:22.753Z,96.20
2019-03-04T02:46:54.153Z,96.40
2019-03-04T02:49:24.542Z,96.40
2019-03-04T02:51:54.891Z,96.40
2019-03-04T02:54:25.367Z,96.40
2019-03-04T02:56:55.721Z,96.60
2019-03-04T02:59:26.150Z,96.40
2019-03-04T03:01:56.504Z,96.40
2019-03-04T03:04:26.891Z,96.50
2019-03-04T03:06:57.260Z,96.50
2019-03-04T03:09:27.647Z,96.50
2019-03-04T03:11:58.049Z,96.60
2019-03-04T03:14:28.375Z,96.50
2019-03-04T03:17:18.863Z,96.50
2019-03-04T03:19:49.238Z,96.60
2019-03-04T03:22:19.629Z,96.60
2019-03-04T03:24:50.142Z,96.70
2019-03-04T03:27:20.583Z,96.70
2019-03-04T03:29:52.134Z,96.80
2019-03-04T03:32:22.614Z,96.70
2019-03-04T03:34:53.091Z,96.80
2019-03-04T03:37:23.742Z,96.80
2019-03-04T03:39:54.122Z,96.90
2019-03-04T03:42:24.461Z,96.90
2019-03-04T03:44:54.823Z,96.90
2019-03-04T03:47:25.206Z,97.00
2019-03-04T03:49:55.547Z,97.00
2019-03-04T03:52:25.925Z,97.10
2019-03-04T03:54:56.267Z,97.10
2019-03-04T03:57:26.668Z,97.20
2019-03-04T03:59:57.013Z,97.20
2019-03-04T04:02:27.500Z,97.20
2019-03-04T04:04:57.846Z,97.30
2019-03-04T04:07:28.325Z,97.20
2019-03-04T04:09:58.657Z,97.30
2019-03-04T04:12:29.038Z,97.30
2019-03-04T04:14:59.377Z,97.20
2019-03-04T04:17:30.822Z,97.30
2019-03-04T04:20:02.245Z,97.20
2019-03-04T04:22:32.621Z,97.20
2019-03-04T04:25:02.961Z,97.40
2019-03-04T04:27:33.449Z,97.30
2019-03-04T04:30:03.891Z,97.20
2019-03-04T04:32:34.354Z,97.20
2019-03-04T04:35:04.717Z,97.20
2019-03-04T04:37:35.345Z,97.20
2019-03-04T04:40:06.068Z,97.30
2019-03-04T04:42:36.581Z,97.30
2019-03-04T04:45:07.053Z,97.30
2019-03-04T04:47:37.457Z,97.40
2019-03-04T04:50:09.386Z,97.20
2019-03-04T04:52:39.770Z,97.00
2019-03-04T04:55:10.126Z,97.00
2019-03-04T04:57:40.523Z,97.00
2019-03-04T05:00:12.910Z,96.90
2019-03-04T05:02:43.377Z,96.90
2019-03-04T05:05:13.708Z,96.80
2019-03-04T05:07:45.142Z,96.80
2019-03-04T05:10:17.209Z,96.70
2019-03-04T05:12:47.587Z,96.80
2019-03-04T05:15:18.188Z,97.00
2019-03-04T05:17:48.537Z,97.10
2019-03-04T05:20:20.584Z,97.10
2019-03-04T05:22:50.937Z,97.20
2019-03-04T05:25:21.421Z,97.30
2019-03-04T05:27:51.788Z,97.10
2019-03-04T05:30:22.176Z,96.80
2019-03-04T05:32:53.895Z,96.70
2019-03-04T05:35:24.368Z,96.90
2019-03-04T05:37:54.849Z,96.70
2019-03-04T05:40:25.221Z,96.80
2019-03-04T05:42:55.650Z,96.80
2019-03-04T05:45:27.091Z,96.80
2019-03-04T05:47:57.465Z,96.50
2019-03-04T05:50:27.869Z,96.80
2019-03-04T05:52:58.218Z,96.80
2019-03-04T05:55:28.931Z,96.80
2019-03-04T05:57:59.626Z,96.90
2019-03-04T06:00:33.069Z,97.10
2019-03-04T06:03:03.473Z,97.10
2019-03-04T06:05:33.888Z,96.90
2019-03-04T06:08:05.684Z,97.10
2019-03-04T06:10:36.052Z,97.00
2019-03-04T06:13:06.417Z,96.90
2019-03-04T06:15:36.790Z,97.00
2019-03-04T06:18:07.145Z,96.80
2019-03-04T06:20:37.505Z,96.60
2019-03-04T06:23:07.898Z,96.40
2019-03-04T06:25:38.597Z,96.50
2019-03-04T06:28:09.314Z,96.10
2019-03-04T06:30:39.653Z,96.00
2019-03-04T06:33:10.022Z,96.00
2019-03-04T06:35:41.426Z,96.00
2019-03-04T06:38:11.965Z,95.90
2019-03-04T06:40:42.305Z,95.80
2019-03-04T06:43:12.669Z,95.60
2019-03-04T06:45:43.024Z,95.50
2019-03-04T06:48:13.369Z,95.40
2019-03-04T06:50:51.777Z,95.60
2019-03-04T06:53:44.553Z,95.60
2019-03-04T06:56:47.905Z,95.50
2019-03-04T06:59:44.186Z,95.60
2019-03-04T07:02:15.159Z,95.80
2019-03-04T07:05:37.735Z,95.70
2019-03-04T07:08:09.577Z,95.60
2019-03-04T07:10:39.925Z,95.70
2019-03-04T07:13:10.318Z,95.30
2019-03-04T07:15:40.670Z,95.50
2019-03-04T07:18:11.042Z,95.60
2019-03-04T07:20:41.391Z,95.60
2019-03-04T07:23:11.753Z,95.60
2019-03-04T07:25:42.117Z,95.50
2019-03-04T07:28:12.485Z,95.50
2019-03-04T07:30:42.827Z,95.50
2019-03-04T07:33:13.185Z,95.50
2019-03-04T07:35:43.522Z,95.50
2019-03-04T07:38:44.156Z,95.40
2019-03-04T07:41:14.485Z,95.40
2019-03-04T07:43:45.369Z,95.00
2019-03-04T07:46:15.722Z,95.50
2019-03-04T07:48:46.078Z,95.00
2019-03-04T07:51:17.088Z,94.90
2019-03-04T07:53:47.446Z,95.30
2019-03-04T07:56:17.777Z,94.80
2019-03-04T07:58:48.181Z,94.70
2019-03-04T08:01:19.574Z,94.80
2019-03-04T08:03:50.383Z,94.40
2019-03-04T08:06:20.718Z,94.50
2019-03-04T08:09:17.469Z,94.00
2019-03-04T08:12:37.645Z,94.40
2019-03-04T08:15:09.961Z,94.10
2019-03-04T08:17:40.300Z,93.50
2019-03-04T08:20:11.946Z,93.50
2019-03-04T08:22:42.278Z,93.30
2019-03-04T08:25:15.637Z,93.40
2019-03-04T08:27:46.170Z,92.80
2019-03-04T08:30:21.831Z,93.00
2019-03-04T08:32:52.509Z,92.80
2019-03-04T08:35:23.066Z,92.90
2019-03-04T08:37:53.418Z,93.50
2019-03-04T08:40:23.800Z,93.00
2019-03-04T08:42:54.161Z,92.00
2019-03-04T08:45:24.529Z,92.20
2019-03-04T08:47:54.890Z,92.80
2019-03-04T08:50:25.236Z,91.70
2019-03-04T08:52:55.593Z,92.70
2019-03-04T08:55:25.962Z,92.80
2019-03-04T08:57:56.404Z,92.50
2019-03-04T09:00:27.961Z,92.50
2019-03-04T09:02:58.469Z,91.80
2019-03-04T09:05:28.805Z,92.20
2019-03-04T09:07:59.526Z,92.60
2019-03-04T09:10:31.349Z,91.90
2019-03-04T09:13:01.683Z,92.30
2019-03-04T09:15:32.961Z,91.80
2019-03-04T09:18:03.293Z,92.00
2019-03-04T09:20:33.770Z,91.60
2019-03-04T09:23:04.098Z,91.90
2019-03-04T09:25:43.429Z,91.10
2019-03-04T09:28:14.190Z,91.80
2019-03-04T09:30:44.638Z,91.60
2019-03-04T09:33:15.297Z,91.90
2019-03-04T09:35:45.869Z,92.10
2019-03-04T09:38:16.217Z,91.30
2019-03-04T09:40:46.637Z,91.00
2019-03-04T09:43:16.997Z,91.20
2019-03-04T09:45:48.150Z,90.80
2019-03-04T09:48:18.489Z,91.00
2019-03-04T09:50:48.881Z,90.90
2019-03-04T09:53:19.318Z,91.50
2019-03-04T09:55:49.681Z,90.40
2019-03-04T09:58:20.041Z,90.90
2019-03-04T10:00:54.428Z,90.40
2019-03-04T10:04:20.890Z,90.80
2019-03-04T10:07:15.575Z,90.30
2019-03-04T10:10:11.445Z,90.10
2019-03-04T10:13:21.761Z,90.00
2019-03-04T10:16:38.469Z,90.30
2019-03-04T10:19:56.053Z,90.30
2019-03-04T10:22:53.442Z,89.80
2019-03-04T10:25:56.457Z,90.30
2019-03-04T10:28:54.214Z,89.20
2019-03-04T10:32:01.062Z,88.70
2019-03-04T10:35:29.690Z,87.60
2019-03-04T10:38:22.367Z,86.30
2019-03-04T10:41:15.281Z,84.40
2019-03-04T10:44:25.560Z,84.30
2019-03-04T10:46:57.404Z,84.40
2019-03-04T10:49:29.402Z,82.40
2019-03-04T10:51:59.806Z,81.80
2019-03-04T10:54:30.413Z,78.80
2019-03-04T10:57:00.745Z,79.00
2019-03-04T10:59:31.132Z,79.00
2019-03-04T11:02:01.542Z,76.20
2019-03-04T11:04:32.070Z,76.40
2019-03-04T11:07:02.406Z,75.90
2019-03-04T11:09:32.866Z,74.20
2019-03-04T11:12:03.206Z,74.80
2019-03-04T11:14:34.740Z,74.30
2019-03-04T11:17:05.077Z,73.00
2019-03-04T11:19:35.414Z,76.40
2019-03-04T11:22:07.162Z,84.70
2019-03-04T11:24:37.598Z,91.10
2019-03-04T11:27:08.333Z,92.90
2019-03-04T11:29:38.669Z,93.90
2019-03-04T11:32:09.469Z,94.20
2019-03-04T11:34:39.813Z,95.40
2019-03-04T11:37:10.193Z,95.60
2019-03-04T11:40:14.545Z,95.00
2019-03-04T11:42:44.941Z,96.10
2019-03-04T11:45:17.373Z,95.60
2019-03-04T11:47:47.829Z,95.90
2019-03-04T11:50:19.238Z,95.40
2019-03-04T11:52:49.723Z,96.10
2019-03-04T11:55:20.826Z,96.30
2019-03-04T11:57:51.363Z,96.60
2019-03-04T12:00:29.565Z,97.00
2019-03-04T12:03:11.935Z,97.00
2019-03-04T12:05:42.275Z,97.10
2019-03-04T12:08:12.654Z,96.80
2019-03-04T12:10:43.074Z,96.40
2019-03-04T12:13:13.502Z,96.30
2019-03-04T12:15:43.934Z,96.60
2019-03-04T12:18:14.409Z,96.50
2019-03-04T12:20:44.754Z,96.60
2019-03-04T12:23:15.195Z,95.80
2019-03-04T12:25:45.525Z,96.00
2019-03-04T12:28:17.025Z,95.90
2019-03-04T12:30:47.449Z,95.00
2019-03-04T12:33:17.917Z,94.10
2019-03-04T12:35:48.256Z,94.70
2019-03-04T12:38:18.625Z,93.10
2019-03-04T12:40:49.010Z,93.80
2019-03-04T12:43:19.375Z,93.30
2019-03-04T12:45:49.840Z,93.00
2019-03-04T12:48:20.190Z,93.50
2019-03-04T12:50:50.553Z,93.40
2019-03-04T12:53:20.907Z,93.00
2019-03-04T12:55:51.253Z,93.00
2019-03-04T12:58:21.633Z,92.50
2019-03-04T13:00:51.973Z,92.90
2019-03-04T13:03:25.285Z,91.90
2019-03-04T13:05:55.626Z,92.00
2019-03-04T13:08:26.096Z,91.60
2019-03-04T13:10:56.434Z,91.20
2019-03-04T13:13:26.793Z,91.10
2019-03-04T13:15:57.889Z,90.40
2019-03-04T13:18:28.257Z,90.40
2019-03-04T13:20:58.589Z,90.20
2019-03-04T13:23:28.978Z,90.20
2019-03-04T13:25:59.324Z,89.50
2019-03-04T13:28:29.681Z,89.50
2019-03-04T13:31:00.059Z,89.30
2019-03-04T13:33:30.414Z,88.50
2019-03-04T13:36:00.769Z,82.90
2019-03-04T13:38:31.097Z,83.00
2019-03-04T13:41:01.562Z,83.10
2019-03-04T13:43:32.041Z,80.80
2019-03-04T13:46:02.390Z,80.40
2019-03-04T13:48:32.845Z,80.10
2019-03-04T13:51:03.185Z,77.50
2019-03-04T13:53:33.626Z,77.10
2019-03-04T13:56:03.997Z,78.60
2019-03-04T13:58:34.844Z,75.40
2019-03-04T14:01:07.321Z,75.70
2019-03-04T14:03:37.698Z,74.90
2019-03-04T14:06:08.141Z,75.30
2019-03-04T14:08:38.558Z,72.50
2019-03-04T14:11:09.787Z,72.60
2019-03-04T14:13:40.173Z,72.60
2019-03-04T14:16:11.421Z,73.50
2019-03-04T14:18:41.793Z,72.80
2019-03-04T14:21:12.191Z,71.90
2019-03-04T14:23:42.501Z,70.30
2019-03-04T14:26:12.853Z,70.00
2019-03-04T14:28:43.230Z,71.80
2019-03-04T14:31:13.571Z,70.50
2019-03-04T14:33:43.941Z,69.40
2019-03-04T14:36:14.277Z,70.00
2019-03-04T14:38:44.641Z,68.90
2019-03-04T14:41:15.009Z,69.70
2019-03-04T14:43:45.437Z,67.70
2019-03-04T14:46:26.075Z,69.80
2019-03-04T14:48:57.418Z,68.20
2019-03-04T14:51:27.759Z,67.70
2019-03-04T14:53:59.095Z,68.20
2019-03-04T14:56:29.434Z,67.60
2019-03-04T14:59:10.561Z,67.30
2019-03-04T15:01:32.227Z,66.80
2019-03-04T15:04:02.702Z,66.50
2019-03-04T15:06:33.049Z,65.90
2019-03-04T15:09:03.928Z,65.80
2019-03-04T15:11:34.925Z,67.00
2019-03-04T15:14:05.325Z,67.40
2019-03-04T15:16:35.730Z,68.10
2019-03-04T15:19:06.482Z,67.70
2019-03-04T15:21:36.835Z,68.50
2019-03-04T15:24:07.294Z,67.80
2019-03-04T15:26:42.973Z,68.50
2019-03-04T15:29:09.630Z,69.60
2019-03-04T15:31:39.985Z,69.70
2019-03-04T15:34:10.379Z,68.80
2019-03-04T15:36:40.721Z,68.40
2019-03-04T15:39:22.929Z,70.70
2019-03-04T15:41:50.196Z,70.40
2019-03-04T15:44:20.317Z,70.90
2019-03-04T15:46:50.658Z,71.00
2019-03-04T15:49:21.120Z,71.90
2019-03-04T15:51:51.456Z,72.00
2019-03-04T15:54:22.243Z,72.70
2019-03-04T15:56:52.569Z,73.60
2019-03-04T15:59:23.020Z,73.90
2019-03-04T16:01:53.345Z,76.70
2019-03-04T16:04:23.817Z,84.00
2019-03-04T16:06:54.194Z,91.10
2019-03-04T16:09:25.145Z,93.00
2019-03-04T16:11:55.526Z,94.50
2019-03-04T16:14:26.038Z,95.60
2019-03-04T16:16:56.817Z,95.90
2019-03-04T16:19:27.154Z,96.10
2019-03-04T16:21:57.538Z,97.20
2019-03-04T16:24:27.904Z,96.90
2019-03-04T16:26:58.726Z,96.80
2019-03-04T16:29:36.914Z,96.80
2019-03-04T16:32:01.030Z,96.60
2019-03-04T16:34:31.525Z,96.90
2019-03-04T16:37:06.594Z,96.10
2019-03-04T16:39:37.333Z,96.50
2019-03-04T16:42:09.116Z,96.70
2019-03-04T16:44:40.127Z,97.20
2019-03-04T16:47:10.671Z,97.10
2019-03-04T16:49:41.005Z,97.20
2019-03-04T16:52:11.361Z,97.10
2019-03-04T16:54:41.697Z,97.80
2019-03-04T16:57:13.769Z,97.10
2019-03-04T16:59:44.103Z,97.50
2019-03-04T17:02:14.573Z,97.60
2019-03-04T17:04:45.002Z,97.60
2019-03-04T17:07:15.399Z,97.90
2019-03-04T17:09:45.814Z,97.50
2019-03-04T17:12:16.571Z,97.70
2019-03-04T17:14:46.941Z,97.60
2019-03-04T17:17:17.369Z,97.60
2019-03-04T17:19:47.787Z,97.60
2019-03-04T17:22:18.193Z,97.80
2019-03-04T17:24:48.535Z,97.70
2019-03-04T17:27:18.989Z,98.00
2019-03-04T17:29:49.354Z,97.90
2019-03-04T17:32:19.778Z,97.90
2019-03-04T17:34:50.146Z,97.80
2019-03-04T17:37:20.489Z,97.80
2019-03-04T17:39:52.282Z,98.00
2019-03-04T17:42:22.765Z,97.70
2019-03-04T17:44:53.226Z,98.00
2019-03-04T17:47:23.970Z,98.00
2019-03-04T17:49:54.328Z,97.90
2019-03-04T17:52:24.657Z,97.90
2019-03-04T17:54:55.026Z,97.60
2019-03-04T17:57:25.369Z,97.50
2019-03-04T17:59:55.758Z,97.40
2019-03-04T18:02:26.162Z,97.30
2019-03-04T18:04:56.627Z,97.00
2019-03-04T18:07:47.087Z,96.80
2019-03-04T18:10:17.565Z,97.10
2019-03-04T18:12:48.095Z,96.90
2019-03-04T18:15:21.257Z,97.00
2019-03-04T18:17:51.625Z,96.40
2019-03-04T18:20:22.082Z,96.60
2019-03-04T18:22:52.497Z,96.90
2019-03-04T18:25:34.409Z,96.40
2019-03-04T18:28:08.310Z,95.90
2019-03-04T18:31:09.031Z,96.30
2019-03-04T18:33:58.415Z,95.70
2019-03-04T18:36:41.749Z,96.10
2019-03-04T18:39:54.842Z,95.90
2019-03-04T18:42:54.013Z,95.70
2019-03-04T18:46:00.514Z,95.20
2019-03-04T18:48:56.517Z,95.40
2019-03-04T18:51:28.137Z,95.60
2019-03-04T18:54:01.057Z,95.40
2019-03-04T18:56:31.486Z,95.70
2019-03-04T18:59:02.546Z,95.20
2019-03-04T19:01:33.144Z,95.00
2019-03-04T19:04:03.594Z,94.50
2019-03-04T19:06:34.001Z,94.90
2019-03-04T19:09:06.030Z,94.90
2019-03-04T19:11:38.326Z,94.70
2019-03-04T19:14:09.046Z,94.50
2019-03-04T19:16:39.373Z,94.20
2019-03-04T19:19:09.721Z,94.60
2019-03-04T19:21:40.097Z,94.60
2019-03-04T19:24:10.761Z,94.30
2019-03-04T19:26:41.193Z,94.00
2019-03-04T19:29:11.594Z,94.20
2019-03-04T19:31:41.955Z,93.60
2019-03-04T19:34:12.349Z,93.90
2019-03-04T19:36:42.749Z,93.90
2019-03-04T19:39:13.277Z,93.70
2019-03-04T19:41:45.539Z,93.80
2019-03-04T19:44:15.941Z,93.50
2019-03-04T19:46:46.426Z,93.20
2019-03-04T19:49:16.818Z,92.80
2019-03-04T19:51:47.285Z,92.90
2019-03-04T19:54:17.698Z,92.60
2019-03-04T19:56:48.294Z,92.50
2019-03-04T19:59:18.629Z,92.70
2019-03-04T20:01:49.031Z,92.70
2019-03-04T20:04:19.456Z,92.60
2019-03-04T20:06:49.878Z,92.50
2019-03-04T20:09:20.217Z,92.80
2019-03-04T20:11:50.740Z,92.40
2019-03-04T20:14:21.077Z,92.60
2019-03-04T20:16:51.478Z,92.30
2019-03-04T20:19:21.819Z,92.40
2019-03-04T20:21:52.353Z,91.80
2019-03-04T20:24:22.703Z,91.60
2019-03-04T20:26:53.162Z,91.90
2019-03-04T20:29:23.873Z,91.80
2019-03-04T20:31:54.345Z,91.50
2019-03-04T20:34:24.758Z,91.60
2019-03-04T20:36:56.774Z,91.00
2019-03-04T20:39:27.163Z,90.70
2019-03-04T20:41:57.725Z,90.50
2019-03-04T20:44:28.563Z,90.40
2019-03-04T20:46:59.030Z,90.40
2019-03-04T20:49:29.417Z,90.60
2019-03-04T20:52:00.705Z,90.40
2019-03-04T20:54:31.057Z,90.20
2019-03-04T20:57:01.481Z,90.20
2019-03-04T20:59:31.824Z,90.00
2019-03-04T21:02:02.203Z,88.50
2019-03-04T21:04:32.708Z,88.90
2019-03-04T21:07:03.088Z,88.40
2019-03-04T21:09:34.015Z,87.90
2019-03-04T21:12:04.533Z,88.30
2019-03-04T21:14:36.043Z,87.90
2019-03-04T21:17:06.790Z,89.00
2019-03-04T21:19:37.113Z,88.60
2019-03-04T21:22:07.932Z,88.00
2019-03-04T21:24:38.378Z,88.40
2019-03-04T21:27:08.956Z,87.70
2019-03-04T21:30:38.677Z,87.50
2019-03-04T21:33:17.296Z,87.80
2019-03-04T21:36:24.213Z,88.10
2019-03-04T21:38:57.574Z,88.10
2019-03-04T21:42:07.860Z,87.80
2019-03-04T21:45:21.409Z,88.60
2019-03-04T21:47:55.521Z,89.20
2019-03-04T21:50:54.010Z,89.40
2019-03-04T21:53:32.329Z,89.80
2019-03-04T21:56:45.597Z,90.10
2019-03-04T21:59:16.105Z,90.00
2019-03-04T22:01:53.804Z,90.20
2019-03-04T22:04:24.124Z,90.40
2019-03-04T22:06:54.568Z,90.30
2019-03-04T22:09:26.477Z,90.60
2019-03-04T22:11:56.893Z,90.40
2019-03-04T22:14:27.234Z,90.60
2019-03-04T22:16:57.664Z,90.40
2019-03-04T22:19:28.102Z,90.60
2019-03-04T22:21:58.524Z,90.80
2019-03-04T22:24:28.893Z,90.70
2019-03-04T22:26:59.225Z,90.60
2019-03-04T22:29:30.043Z,90.70
2019-03-04T22:32:00.470Z,90.70
2019-03-04T22:34:30.821Z,91.10
2019-03-04T22:37:01.198Z,90.70
2019-03-04T22:39:31.589Z,90.70
2019-03-04T22:42:01.957Z,90.60
2019-03-04T22:44:32.369Z,90.50
2019-03-04T22:47:03.245Z,90.70
2019-03-04T22:49:34.061Z,90.60
2019-03-04T22:52:04.473Z,90.60
2019-03-04T22:54:34.994Z,90.20
2019-03-04T22:57:05.642Z,90.20
2019-03-04T22:59:36.089Z,90.10
2019-03-04T23:02:07.593Z,90.10
2019-03-04T23:04:57.656Z,89.50
2019-03-04T23:07:36.437Z,90.00
2019-03-04T23:10:52.377Z,90.00
2019-03-04T23:13:30.652Z,90.00
2019-03-04T23:16:02.643Z,90.00
2019-03-04T23:18:32.997Z,90.00
2019-03-04T23:21:03.401Z,90.10
2019-03-04T23:23:33.758Z,90.10
2019-03-04T23:26:04.226Z,90.00
2019-03-04T23:28:34.634Z,90.10
2019-03-04T23:31:05.083Z,90.00
2019-03-04T23:33:35.421Z,90.10
2019-03-04T23:36:05.785Z,90.00
2019-03-04T23:38:36.166Z,89.80
2019-03-04T23:41:06.501Z,90.00
2019-03-04T23:43:37.271Z,89.80
2019-03-04T23:46:07.604Z,89.40
2019-03-04T23:48:38.033Z,89.70
2019-03-04T23:51:08.369Z,90.10
2019-03-04T23:53:39.055Z,89.90
2019-03-04T23:56:09.397Z,90.10
2019-03-04T23:58:39.757Z,90.00
